Rushville, Pennsylvania
Current Conditions -  °F | °C
As of 10:53 AM on Saturday 25 Oct 2014 (Local Time) from KBGM Reporting Station
Overcast Overcast  
Wind Chill:   Ceiling: 4500
Heat Index:   Visibility: 10mi
Dew Point:   Wind: 7mph
Humidity: 71%   Direction: 230°SW
Pressure: 29.81"   Gusts: NA
Location:  41.78°N, 76.12°W
Report Text: KBGM 251453Z 23006KT 10SM OVC045 09/04 A2981 RMK AO2 SLP100 T00940044 58012
Loading
Personal Weather Stations






























Interactive Weather Map
Tropical Storm Tracking
New forecast layout! Learn more

10-Day Weather Forecast

Advertisements
Track Severe Weather on mobile